createdAt,value
2023-01-17T00:02:24.035Z,66.31
2023-01-17T00:07:45.476Z,66.40
2023-01-17T00:12:56.264Z,66.35
2023-01-17T00:17:58.725Z,66.47
2023-01-17T00:23:19.023Z,66.63
2023-01-17T00:28:21.076Z,66.58
2023-01-17T00:33:24.016Z,66.57
2023-01-17T00:38:28.331Z,66.70
2023-01-17T00:43:49.509Z,66.76
2023-01-17T00:49:10.503Z,66.82
2023-01-17T00:54:31.225Z,66.60
2023-01-17T00:59:51.632Z,66.66
2023-01-17T01:05:12.820Z,66.57
2023-01-17T01:10:33.743Z,66.50
2023-01-17T01:15:54.669Z,66.80
2023-01-17T01:21:15.284Z,66.80
2023-01-17T01:26:35.692Z,66.97
2023-01-17T01:31:56.056Z,66.78
2023-01-17T01:36:57.802Z,67.15
2023-01-17T01:41:59.638Z,66.98
2023-01-17T01:47:02.467Z,66.77
2023-01-17T01:52:07.730Z,66.93
2023-01-17T01:57:14.042Z,66.98
2023-01-17T02:02:16.247Z,66.91
2023-01-17T02:07:25.472Z,66.99
2023-01-17T02:12:27.851Z,66.92
2023-01-17T02:17:46.069Z,66.74
2023-01-17T02:23:06.315Z,66.76
2023-01-17T02:28:17.182Z,66.86
2023-01-17T02:33:39.640Z,66.84
2023-01-17T02:38:41.567Z,66.88
2023-01-17T02:43:43.982Z,66.85
2023-01-17T02:48:47.747Z,66.99
2023-01-17T02:54:14.227Z,67.01
2023-01-17T02:59:31.182Z,66.94
2023-01-17T03:04:51.843Z,66.72
2023-01-17T03:09:59.918Z,66.67
2023-01-17T03:15:01.898Z,66.54
2023-01-17T03:20:03.875Z,66.54
2023-01-17T03:25:07.042Z,66.21
2023-01-17T03:30:09.424Z,65.74
2023-01-17T03:35:11.257Z,65.63
2023-01-17T03:40:13.199Z,65.32
2023-01-17T03:45:15.117Z,64.98
2023-01-17T03:50:17.192Z,65.09
2023-01-17T03:55:19.481Z,64.48
2023-01-17T04:00:21.501Z,64.28
2023-01-17T04:05:23.507Z,64.31
2023-01-17T04:10:25.321Z,63.98
2023-01-17T04:15:27.233Z,63.90
2023-01-17T04:20:40.253Z,63.90
2023-01-17T04:25:42.202Z,63.85
2023-01-17T04:30:44.121Z,63.67
2023-01-17T04:35:46.010Z,64.02
2023-01-17T04:40:48.783Z,63.54
2023-01-17T04:45:57.978Z,63.55
2023-01-17T04:51:05.141Z,63.75
2023-01-17T04:56:07.401Z,63.78
2023-01-17T05:01:09.991Z,63.62
2023-01-17T05:06:11.866Z,63.33
2023-01-17T05:11:14.351Z,63.30
2023-01-17T05:16:19.415Z,63.35
2023-01-17T05:21:21.621Z,63.19
2023-01-17T05:26:24.028Z,62.98
2023-01-17T05:31:25.901Z,63.24
2023-01-17T05:36:28.053Z,63.20
2023-01-17T05:41:30.134Z,63.17
2023-01-17T05:46:32.012Z,63.02
2023-01-17T05:51:37.734Z,63.29
2023-01-17T05:56:39.593Z,63.13
2023-01-17T06:01:41.396Z,63.23
2023-01-17T06:06:43.198Z,63.27
2023-01-17T06:11:45.022Z,63.19
2023-01-17T06:16:47.862Z,63.26
2023-01-17T06:21:49.811Z,63.37
2023-01-17T06:26:51.745Z,63.29
2023-01-17T06:31:53.805Z,63.28
2023-01-17T06:36:55.687Z,63.35
2023-01-17T06:41:57.798Z,63.56
2023-01-17T06:46:59.736Z,63.42
2023-01-17T06:52:01.568Z,63.43
2023-01-17T06:57:03.471Z,63.41
2023-01-17T07:02:05.770Z,63.33
2023-01-17T07:07:07.611Z,63.35
2023-01-17T07:12:10.345Z,63.21
2023-01-17T07:17:12.577Z,63.10
2023-01-17T07:22:14.727Z,62.81
2023-01-17T07:27:17.165Z,62.95
2023-01-17T07:32:19.463Z,63.02
2023-01-17T07:37:22.223Z,63.08
2023-01-17T07:42:24.781Z,62.93
2023-01-17T07:47:26.859Z,62.95
2023-01-17T07:52:28.990Z,62.90
2023-01-17T07:57:32.653Z,62.95
2023-01-17T08:02:34.444Z,62.99
2023-01-17T08:07:37.266Z,62.95
2023-01-17T08:12:42.090Z,62.84
2023-01-17T08:17:48.689Z,62.68
2023-01-17T08:22:56.601Z,62.75
2023-01-17T08:27:58.856Z,62.66
2023-01-17T08:33:00.656Z,62.50
2023-01-17T08:38:04.959Z,62.65
2023-01-17T08:43:06.723Z,62.57
2023-01-17T08:48:08.549Z,62.47
2023-01-17T08:53:10.731Z,62.48
2023-01-17T08:58:13.058Z,62.40
2023-01-17T09:03:15.039Z,62.08
2023-01-17T09:08:16.840Z,61.84
2023-01-17T09:13:18.695Z,61.66
2023-01-17T09:18:20.605Z,61.88
2023-01-17T09:23:23.280Z,61.76
2023-01-17T09:28:26.439Z,61.57
2023-01-17T09:33:28.324Z,61.13
2023-01-17T09:38:30.923Z,60.92
2023-01-17T09:43:48.235Z,61.12
2023-01-17T09:49:01.970Z,60.25
2023-01-17T09:54:04.982Z,60.00
2023-01-17T09:59:19.038Z,59.21
2023-01-17T10:04:51.998Z,58.72
2023-01-17T10:10:00.709Z,58.83
2023-01-17T10:15:21.450Z,58.23
2023-01-17T10:20:43.204Z,58.36
2023-01-17T10:25:49.750Z,58.30
2023-01-17T10:31:25.408Z,58.13
2023-01-17T10:36:34.548Z,57.89
2023-01-17T10:41:43.893Z,57.76
2023-01-17T10:46:56.051Z,57.49
2023-01-17T10:52:34.998Z,57.21
2023-01-17T10:57:45.690Z,57.52
2023-01-17T11:02:51.254Z,57.27
2023-01-17T11:08:08.105Z,57.04
2023-01-17T11:13:30.705Z,56.19
2023-01-17T11:18:36.588Z,56.05
2023-01-17T11:23:44.637Z,55.84
2023-01-17T11:28:46.984Z,55.99
2023-01-17T11:34:05.369Z,55.42
2023-01-17T11:39:27.710Z,55.05
2023-01-17T11:44:35.411Z,55.60
2023-01-17T11:49:37.678Z,55.61
2023-01-17T11:54:42.886Z,55.59
2023-01-17T11:59:46.014Z,55.53
2023-01-17T12:05:18.707Z,55.40
2023-01-17T12:11:08.528Z,55.17
2023-01-17T12:16:29.448Z,55.26
2023-01-17T12:21:48.585Z,55.40
2023-01-17T12:26:56.149Z,55.19
2023-01-17T12:32:06.475Z,55.47
2023-01-17T12:37:21.758Z,55.46
2023-01-17T12:42:31.049Z,55.26
2023-01-17T12:47:37.910Z,55.52
2023-01-17T12:53:28.344Z,55.44
2023-01-17T12:58:38.376Z,55.57
2023-01-17T13:03:57.606Z,55.81
2023-01-17T13:09:02.642Z,55.56
2023-01-17T13:14:08.841Z,55.25
2023-01-17T13:25:50.508Z,55.51
2023-01-17T13:31:15.871Z,55.56
2023-01-17T13:36:36.332Z,55.41
2023-01-17T13:42:01.566Z,55.54
2023-01-17T13:47:17.429Z,55.86
2023-01-17T13:52:19.171Z,55.58
2023-01-17T13:57:29.554Z,55.64
2023-01-17T14:02:31.627Z,55.87
2023-01-17T14:07:36.030Z,55.69
2023-01-17T14:12:39.240Z,55.66
2023-01-17T14:17:50.963Z,55.76
2023-01-17T14:23:02.461Z,55.56
2023-01-17T14:28:31.435Z,55.38
2023-01-17T14:33:39.873Z,55.21
2023-01-17T14:38:43.770Z,55.42
2023-01-17T14:43:48.596Z,55.42
2023-01-17T14:48:52.730Z,55.72
2023-01-17T14:53:59.472Z,55.62
2023-01-17T14:59:20.261Z,55.64
2023-01-17T15:04:30.724Z,55.79
2023-01-17T15:09:37.171Z,56.01
2023-01-17T15:14:44.532Z,55.86
2023-01-17T15:20:11.301Z,56.16
2023-01-17T15:25:16.081Z,56.56
2023-01-17T15:30:18.713Z,56.62
2023-01-17T15:35:21.186Z,56.96
2023-01-17T15:40:25.365Z,56.95
2023-01-17T15:45:29.932Z,57.00
2023-01-17T15:50:32.269Z,56.94
2023-01-17T15:55:36.756Z,57.23
2023-01-17T16:00:39.435Z,57.44
2023-01-17T16:05:43.908Z,57.41
2023-01-17T16:10:45.851Z,57.56
2023-01-17T16:15:47.988Z,57.63
2023-01-17T16:20:55.210Z,57.66
2023-01-17T16:25:57.040Z,57.69
2023-01-17T16:30:59.061Z,57.80
2023-01-17T16:36:01.188Z,57.89
2023-01-17T16:41:04.592Z,57.93
2023-01-17T16:46:06.782Z,58.08
2023-01-17T16:51:08.769Z,58.16
2023-01-17T16:56:14.531Z,58.27
2023-01-17T17:01:20.845Z,58.28
2023-01-17T17:06:22.880Z,58.48
2023-01-17T17:11:25.239Z,58.58
2023-01-17T17:16:31.504Z,58.63
2023-01-17T17:21:35.249Z,58.76
2023-01-17T17:26:37.448Z,58.81
2023-01-17T17:31:41.206Z,58.77
2023-01-17T17:36:43.551Z,58.57
2023-01-17T17:41:45.946Z,58.83
2023-01-17T17:46:49.773Z,58.88
2023-01-17T17:51:51.821Z,58.83
2023-01-17T17:56:53.961Z,58.82
2023-01-17T18:01:55.970Z,58.91
2023-01-17T18:06:58.356Z,58.89
2023-01-17T18:12:01.238Z,59.03
2023-01-17T18:17:03.032Z,59.05
2023-01-17T18:22:04.858Z,59.07
2023-01-17T18:27:06.946Z,58.94
2023-01-17T18:32:08.817Z,59.14
2023-01-17T18:37:10.907Z,58.99
2023-01-17T18:42:12.842Z,59.17
2023-01-17T18:47:14.717Z,59.16
2023-01-17T18:52:17.604Z,59.07
2023-01-17T18:57:19.442Z,59.20
2023-01-17T19:02:21.450Z,59.27
2023-01-17T19:07:24.166Z,59.31
2023-01-17T19:12:26.462Z,59.48
2023-01-17T19:17:28.207Z,59.06
2023-01-17T19:22:30.754Z,59.48
2023-01-17T19:27:33.117Z,59.38
2023-01-17T19:32:34.983Z,59.28
2023-01-17T19:37:37.171Z,59.42
2023-01-17T19:42:40.678Z,59.41
2023-01-17T19:47:42.441Z,59.55
2023-01-17T19:52:44.365Z,59.56
2023-01-17T19:57:46.150Z,59.57
2023-01-17T20:02:48.154Z,59.60
2023-01-17T20:07:50.095Z,59.61
2023-01-17T20:12:52.305Z,59.73
2023-01-17T20:17:54.511Z,59.55
2023-01-17T20:22:56.610Z,59.73
2023-01-17T20:27:58.927Z,59.66
2023-01-17T20:33:00.979Z,59.80
2023-01-17T20:38:02.869Z,59.88
2023-01-17T20:43:04.724Z,59.74
2023-01-17T20:48:06.642Z,59.84
2023-01-17T20:53:08.388Z,59.67
2023-01-17T20:58:10.198Z,59.85
2023-01-17T21:03:12.438Z,59.96
2023-01-17T21:08:17.745Z,59.92
2023-01-17T21:13:20.701Z,60.01
2023-01-17T21:18:24.289Z,60.16
2023-01-17T21:23:29.365Z,59.98
2023-01-17T21:28:34.515Z,59.86
2023-01-17T21:33:36.301Z,60.23
2023-01-17T21:38:38.935Z,60.28
2023-01-17T21:43:40.958Z,60.25
2023-01-17T21:48:44.556Z,60.28
2023-01-17T21:53:46.363Z,60.24
2023-01-17T21:58:53.797Z,60.28
2023-01-17T22:03:58.542Z,60.38
2023-01-17T22:09:00.526Z,60.43
2023-01-17T22:14:05.208Z,60.54
2023-01-17T22:19:07.111Z,60.42
2023-01-17T22:24:09.549Z,60.45
2023-01-17T22:29:11.484Z,60.45
2023-01-17T22:34:14.076Z,60.58
2023-01-17T22:39:15.863Z,60.64
2023-01-17T22:44:18.061Z,60.77
2023-01-17T22:49:23.503Z,60.99
2023-01-17T22:54:25.332Z,60.59
2023-01-17T22:59:27.199Z,60.51
2023-01-17T23:04:29.239Z,60.66
2023-01-17T23:09:31.139Z,60.73
2023-01-17T23:14:54.038Z,60.63
2023-01-17T23:19:55.847Z,60.66
2023-01-17T23:25:00.166Z,60.83
2023-01-17T23:30:04.618Z,60.95
2023-01-17T23:35:07.128Z,61.04
2023-01-17T23:40:10.048Z,61.10
2023-01-17T23:45:11.832Z,61.12
2023-01-17T23:50:13.727Z,61.28
2023-01-17T23:55:15.678Z,61.20
